createdAt,value
2024-02-05T00:00:22.017Z,62.46
2024-02-05T00:01:22.106Z,63.60
2024-02-05T00:02:22.028Z,64.29
2024-02-05T00:12:23.528Z,68.24
2024-02-05T00:13:22.950Z,66.57
2024-02-05T00:14:23.008Z,65.58
2024-02-05T00:15:23.015Z,65.15
2024-02-05T00:16:23.466Z,65.01
2024-02-05T00:21:04.581Z,59.88
2024-02-05T00:22:04.450Z,59.06
2024-02-05T00:52:04.152Z,61.58
2024-02-05T00:52:51.487Z,61.45
2024-02-05T00:53:51.885Z,61.69
2024-02-05T00:54:51.608Z,59.92
2024-02-05T00:55:51.373Z,58.44
2024-02-05T00:56:51.378Z,58.30
2024-02-05T00:57:51.718Z,58.29
2024-02-05T00:58:51.377Z,58.34
2024-02-05T00:59:51.488Z,58.52
2024-02-05T01:00:51.405Z,59.13
2024-02-05T01:01:51.736Z,60.23
2024-02-05T01:02:51.326Z,61.57
2024-02-05T01:05:11.738Z,63.18
2024-02-05T01:06:12.169Z,63.18
2024-02-05T01:08:31.601Z,63.86
2024-02-05T01:09:31.189Z,63.58
2024-02-05T01:10:31.242Z,63.52
2024-02-05T01:11:32.211Z,63.43
2024-02-05T01:12:31.875Z,63.03
2024-02-05T01:13:32.248Z,62.74
2024-02-05T01:14:31.207Z,63.05
2024-02-05T01:15:31.302Z,63.47
2024-02-05T01:16:31.468Z,63.25
2024-02-05T01:17:31.547Z,63.26
2024-02-05T01:18:31.237Z,64.05
2024-02-05T01:19:31.466Z,63.20
2024-02-05T01:20:31.304Z,64.12
2024-02-05T01:21:32.593Z,65.05
2024-02-05T01:26:47.633Z,66.56
2024-02-05T01:27:34.599Z,64.71
2024-02-05T01:28:34.163Z,64.54
2024-02-05T01:41:16.853Z,64.57
2024-02-05T01:42:16.635Z,63.64
2024-02-05T01:43:15.890Z,63.30
2024-02-05T01:44:15.748Z,63.56
2024-02-05T01:45:16.509Z,63.69
2024-02-05T01:46:15.837Z,63.79
2024-02-05T01:51:55.447Z,65.31
2024-02-05T01:52:52.304Z,65.16
2024-02-05T01:53:52.557Z,65.79
2024-02-05T02:05:00.059Z,67.54
2024-02-05T02:05:59.801Z,64.88
2024-02-05T02:06:59.796Z,63.54
2024-02-05T02:08:00.748Z,61.87
2024-02-05T02:09:00.151Z,60.19
2024-02-05T02:10:00.407Z,59.67
2024-02-05T02:10:59.753Z,63.12
2024-02-05T02:11:59.656Z,64.15
2024-02-05T02:12:59.949Z,64.87
2024-02-05T02:14:00.070Z,65.30
2024-02-05T02:17:02.664Z,67.65
2024-02-05T02:18:02.524Z,66.47
2024-02-05T02:19:02.565Z,66.62
2024-02-05T02:20:03.032Z,66.49
2024-02-05T02:21:02.385Z,66.09
2024-02-05T02:22:02.545Z,66.39
2024-02-05T02:23:02.590Z,66.82
2024-02-05T02:25:50.450Z,69.06
2024-02-05T02:26:50.765Z,67.93
2024-02-05T02:27:50.080Z,68.21
2024-02-05T02:28:51.081Z,68.40
2024-02-05T02:32:57.253Z,71.20
2024-02-05T02:33:57.331Z,69.95
2024-02-05T02:34:58.531Z,69.88
2024-02-05T02:35:57.467Z,69.89
2024-02-05T02:36:57.283Z,69.95
2024-02-05T02:37:57.091Z,70.17
2024-02-05T02:38:57.089Z,70.02
2024-02-05T02:39:57.219Z,69.98
2024-02-05T02:40:57.234Z,69.96
2024-02-05T02:49:02.755Z,68.25
2024-02-05T02:50:02.276Z,67.00
2024-02-05T02:51:02.322Z,64.94
2024-02-05T02:52:02.405Z,62.40
2024-02-05T02:53:02.646Z,61.47
2024-02-05T02:54:02.101Z,60.58
2024-02-05T02:55:02.225Z,59.52
2024-02-05T02:56:03.237Z,58.39
2024-02-05T02:57:02.224Z,59.72
2024-02-05T02:58:02.173Z,60.96
2024-02-05T02:59:02.148Z,62.17
2024-02-05T03:00:03.159Z,61.86
2024-02-05T03:01:02.263Z,62.42
2024-02-05T03:02:02.522Z,61.59
2024-02-05T03:03:02.486Z,61.61
2024-02-05T03:04:02.337Z,63.20
2024-02-05T03:05:02.350Z,63.65
2024-02-05T03:06:02.120Z,63.65
2024-02-05T03:07:02.278Z,63.79
2024-02-05T03:08:02.223Z,63.87
2024-02-05T03:09:02.089Z,64.27
2024-02-05T03:10:02.205Z,65.19
2024-02-05T03:11:02.427Z,65.90
2024-02-05T03:12:02.012Z,66.19
2024-02-05T03:18:15.238Z,68.54
2024-02-05T03:19:15.060Z,67.13
2024-02-05T03:20:16.206Z,66.15
2024-02-05T03:21:16.164Z,66.07
2024-02-05T03:22:16.206Z,66.21
2024-02-05T03:23:15.144Z,65.55
2024-02-05T03:24:14.927Z,65.91
2024-02-05T03:25:15.038Z,66.46
2024-02-05T03:26:15.095Z,66.81
2024-02-05T03:28:35.713Z,66.05
2024-02-05T03:29:35.750Z,63.83
2024-02-05T03:30:35.000Z,65.52
2024-02-05T03:31:34.981Z,66.81
2024-02-05T03:32:34.733Z,67.28
2024-02-05T03:33:35.132Z,68.03
2024-02-05T03:37:04.952Z,71.28
2024-02-05T03:38:03.070Z,69.97
2024-02-05T03:40:23.415Z,70.39
2024-02-05T03:41:23.880Z,69.38
2024-02-05T03:42:23.619Z,69.56
2024-02-05T03:43:24.201Z,69.95
2024-02-05T03:54:36.936Z,73.33
2024-02-05T04:01:23.512Z,71.19
2024-02-05T04:06:24.993Z,73.88
2024-02-05T04:07:24.696Z,72.35
2024-02-05T04:08:24.636Z,72.15
2024-02-05T04:09:25.032Z,72.16
2024-02-05T04:13:27.366Z,72.69
2024-02-05T04:15:54.696Z,70.08
2024-02-05T04:16:46.683Z,67.29
2024-02-05T04:17:46.647Z,66.38
2024-02-05T04:18:46.922Z,64.97
2024-02-05T04:19:46.682Z,63.79
2024-02-05T04:20:47.154Z,62.38
2024-02-05T04:21:46.653Z,61.34
2024-02-05T04:22:46.762Z,60.87
2024-02-05T04:23:46.721Z,60.87
2024-02-05T04:24:46.697Z,62.50
2024-02-05T04:28:51.416Z,68.34
2024-02-05T04:29:50.954Z,67.97
2024-02-05T04:32:21.379Z,71.04
2024-02-05T04:35:30.433Z,70.18
2024-02-05T04:36:30.034Z,68.54
2024-02-05T04:48:37.693Z,61.74
2024-02-05T04:49:40.422Z,61.14
2024-02-05T04:50:38.607Z,63.38
2024-02-05T04:51:37.306Z,64.06
2024-02-05T04:52:37.693Z,63.49
2024-02-05T04:53:37.446Z,63.29
2024-02-05T04:54:37.248Z,63.36
2024-02-05T04:55:40.217Z,63.53
2024-02-05T04:56:37.300Z,63.94
2024-02-05T04:57:37.363Z,64.54
2024-02-05T04:58:37.379Z,65.32
2024-02-05T04:59:37.393Z,65.89
2024-02-05T05:03:16.832Z,67.52
2024-02-05T05:04:18.479Z,65.82
2024-02-05T05:05:16.782Z,64.67
2024-02-05T05:06:16.740Z,63.82
2024-02-05T05:07:16.825Z,63.48
2024-02-05T05:08:17.112Z,63.75
2024-02-05T05:09:17.067Z,65.04
2024-02-05T05:10:16.918Z,66.14
2024-02-05T05:11:17.467Z,65.48
2024-02-05T05:12:16.785Z,65.65
2024-02-05T05:13:16.949Z,65.64
2024-02-05T05:14:16.634Z,65.47
2024-02-05T05:15:16.803Z,64.49
2024-02-05T05:16:16.751Z,64.04
2024-02-05T05:17:16.824Z,64.93
2024-02-05T05:18:16.887Z,65.70
2024-02-05T05:19:16.763Z,66.89
2024-02-05T05:20:16.684Z,67.56
2024-02-05T05:21:16.713Z,68.77
2024-02-05T05:22:16.849Z,69.48
2024-02-05T05:23:17.278Z,69.73
2024-02-05T05:24:16.759Z,70.10
2024-02-05T05:25:17.010Z,70.52
2024-02-05T05:26:17.482Z,70.71
2024-02-05T05:27:16.974Z,70.75
2024-02-05T05:28:17.382Z,71.11
2024-02-05T05:30:38.401Z,71.49
2024-02-05T05:31:37.697Z,71.06
2024-02-05T05:32:37.532Z,71.22
2024-02-05T05:33:37.624Z,71.37
2024-02-05T05:37:17.912Z,71.23
2024-02-05T05:38:17.273Z,70.84
2024-02-05T05:39:16.748Z,70.88
2024-02-05T05:40:17.340Z,70.76
2024-02-05T05:41:16.994Z,70.02
2024-02-05T05:42:16.762Z,69.97
2024-02-05T05:43:16.875Z,70.25
2024-02-05T05:44:16.802Z,70.31
2024-02-05T05:45:16.746Z,70.37
2024-02-05T05:46:16.729Z,70.42
2024-02-05T06:05:12.273Z,75.61
2024-02-05T06:11:10.921Z,75.20
2024-02-05T06:22:55.297Z,75.35
2024-02-05T06:23:51.021Z,74.67
2024-02-05T06:24:50.450Z,74.60
2024-02-05T06:36:28.500Z,77.29
2024-02-05T06:37:27.574Z,75.82
2024-02-05T06:41:37.661Z,78.01
2024-02-05T06:42:23.543Z,76.54
2024-02-05T06:43:23.682Z,75.96
2024-02-05T06:44:24.035Z,75.50
2024-02-05T06:45:24.291Z,75.28
2024-02-05T06:46:24.028Z,75.19
2024-02-05T06:47:23.517Z,75.18
2024-02-05T06:51:47.325Z,77.66
2024-02-05T06:52:44.301Z,76.20
2024-02-05T07:00:26.615Z,77.24
2024-02-05T07:01:26.365Z,76.61
2024-02-05T07:02:28.504Z,76.40
2024-02-05T07:08:12.482Z,78.89
2024-02-05T07:09:11.536Z,77.29
2024-02-05T07:10:12.022Z,76.95
2024-02-05T07:11:11.016Z,76.70
2024-02-05T07:12:11.361Z,76.58
2024-02-05T07:16:26.893Z,78.87
2024-02-05T07:19:30.436Z,78.90
2024-02-05T07:21:48.614Z,76.82
2024-02-05T07:22:48.721Z,76.40
2024-02-05T07:23:48.836Z,76.30
2024-02-05T07:24:48.609Z,76.22
2024-02-05T07:25:48.492Z,76.14
2024-02-05T07:26:49.423Z,76.13
2024-02-05T07:36:23.682Z,78.89
2024-02-05T07:37:24.860Z,77.30
2024-02-05T07:38:23.612Z,76.98
2024-02-05T07:39:23.757Z,76.82
2024-02-05T07:40:23.908Z,76.69
2024-02-05T07:41:24.152Z,76.61
2024-02-05T08:03:12.676Z,77.54
2024-02-05T08:04:11.793Z,76.81
2024-02-05T08:05:14.776Z,76.50
2024-02-05T08:06:12.265Z,76.33
2024-02-05T08:07:11.622Z,76.20
2024-02-05T08:08:11.396Z,76.09
2024-02-05T08:09:11.885Z,76.02
2024-02-05T08:23:51.794Z,77.71
2024-02-05T08:24:51.837Z,75.67
2024-02-05T08:25:51.431Z,75.19
2024-02-05T08:26:51.404Z,74.80
2024-02-05T08:27:51.658Z,74.54
2024-02-05T08:28:51.619Z,74.17
2024-02-05T08:29:51.364Z,73.94
2024-02-05T08:30:51.689Z,73.57
2024-02-05T08:31:52.055Z,73.26
2024-02-05T08:32:51.711Z,72.83
2024-02-05T08:33:51.530Z,72.30
2024-02-05T08:34:51.529Z,70.94
2024-02-05T08:35:51.385Z,69.91
2024-02-05T08:36:51.334Z,69.37
2024-02-05T08:37:51.313Z,67.45
2024-02-05T08:38:51.444Z,65.15
2024-02-05T08:39:51.642Z,62.21
2024-02-05T08:40:51.340Z,58.13
2024-02-05T08:41:51.567Z,54.29
2024-02-05T08:42:51.484Z,50.88
2024-02-05T08:43:51.521Z,47.25
2024-02-05T08:44:51.735Z,45.33
2024-02-05T08:45:51.771Z,42.81
2024-02-05T08:46:51.373Z,40.50
2024-02-05T08:47:51.315Z,39.23
2024-02-05T08:48:51.416Z,38.13
2024-02-05T08:49:51.890Z,37.33
2024-02-05T08:50:51.308Z,35.94
2024-02-05T08:51:51.411Z,34.75
2024-02-05T08:52:51.209Z,33.67
2024-02-05T08:53:51.276Z,32.20
2024-02-05T08:54:51.244Z,31.08
2024-02-05T08:55:52.159Z,29.80
2024-02-05T08:56:51.325Z,28.62
2024-02-05T08:57:51.364Z,27.53
2024-02-05T08:58:51.231Z,26.97
2024-02-05T08:59:51.330Z,27.04
2024-02-05T09:00:51.326Z,27.48
2024-02-05T09:01:51.373Z,27.41
2024-02-05T09:02:52.106Z,26.74
2024-02-05T09:03:51.208Z,26.09
2024-02-05T09:04:51.218Z,25.36
2024-02-05T09:05:51.507Z,24.68
2024-02-05T09:06:51.872Z,24.64
2024-02-05T09:07:52.472Z,24.70
2024-02-05T09:08:51.191Z,25.45
2024-02-05T09:09:51.385Z,26.29
2024-02-05T09:10:51.140Z,26.44
2024-02-05T09:12:01.195Z,26.52
2024-02-05T09:12:52.511Z,25.86
2024-02-05T09:13:51.132Z,25.02
2024-02-05T09:14:51.191Z,24.77
2024-02-05T09:15:51.181Z,24.80
2024-02-05T09:16:53.880Z,25.17
2024-02-05T09:17:51.621Z,25.02
2024-02-05T09:18:51.213Z,25.01
2024-02-05T09:19:51.357Z,25.21
2024-02-05T09:20:51.308Z,24.23
2024-02-05T09:21:51.258Z,23.23
2024-02-05T09:22:52.105Z,22.68
2024-02-05T09:23:51.092Z,22.02
2024-02-05T09:24:51.225Z,21.75
2024-02-05T09:25:51.582Z,21.94
2024-02-05T09:26:51.461Z,22.16
2024-02-05T09:27:51.133Z,22.05
2024-02-05T09:28:51.664Z,22.27
2024-02-05T09:29:51.244Z,22.58
2024-02-05T09:31:01.623Z,23.14
2024-02-05T09:31:52.194Z,23.88
2024-02-05T09:32:51.483Z,24.32
2024-02-05T09:33:51.255Z,23.84
2024-02-05T09:34:51.189Z,23.87
2024-02-05T09:35:51.847Z,24.23
2024-02-05T09:36:51.127Z,23.77
2024-02-05T09:37:51.232Z,24.59
2024-02-05T09:38:51.948Z,24.01
2024-02-05T09:39:51.427Z,24.15
2024-02-05T09:40:51.113Z,23.49
2024-02-05T09:41:51.114Z,22.75
2024-02-05T09:42:51.121Z,22.06
2024-02-05T09:43:52.403Z,21.23
2024-02-05T09:44:51.182Z,20.71
2024-02-05T09:45:53.297Z,20.14
2024-02-05T09:46:51.765Z,19.70
2024-02-05T09:47:51.541Z,20.03
2024-02-05T09:48:52.375Z,21.17
2024-02-05T09:49:51.460Z,22.17
2024-02-05T09:50:51.346Z,22.13
2024-02-05T09:51:52.471Z,21.65
2024-02-05T09:52:51.446Z,20.98
2024-02-05T09:53:53.434Z,20.54
2024-02-05T09:54:51.797Z,20.84
2024-02-05T09:55:51.422Z,21.78
2024-02-05T09:56:51.333Z,22.12
2024-02-05T09:57:51.385Z,21.68
2024-02-05T09:58:51.332Z,21.58
2024-02-05T09:59:51.341Z,21.77
2024-02-05T10:00:52.635Z,21.57
2024-02-05T10:01:51.868Z,21.16
2024-02-05T10:02:51.334Z,20.46
2024-02-05T10:03:51.403Z,19.65
2024-02-05T10:04:51.482Z,19.05
2024-02-05T10:05:51.419Z,18.61
2024-02-05T10:06:51.421Z,18.03
2024-02-05T10:07:51.404Z,17.83
2024-02-05T10:08:51.234Z,17.41
2024-02-05T10:09:51.383Z,17.81
2024-02-05T10:10:51.276Z,19.02
2024-02-05T10:11:51.297Z,20.22
2024-02-05T10:12:51.302Z,20.15
2024-02-05T10:13:51.426Z,19.87
2024-02-05T10:14:51.370Z,19.81
2024-02-05T10:15:52.701Z,20.05
2024-02-05T10:16:52.218Z,20.43
2024-02-05T10:17:51.432Z,21.25
2024-02-05T10:18:51.689Z,21.70
2024-02-05T10:19:51.636Z,21.71
2024-02-05T10:20:51.424Z,21.86
2024-02-05T10:21:51.729Z,23.04
2024-02-05T10:22:52.205Z,23.40
2024-02-05T10:23:51.560Z,23.40
2024-02-05T10:24:51.666Z,23.66
2024-02-05T10:25:51.572Z,23.23
2024-02-05T10:26:51.823Z,22.92
2024-02-05T10:27:51.838Z,22.36
2024-02-05T10:28:51.830Z,22.09
2024-02-05T10:29:51.837Z,21.53
2024-02-05T10:30:51.986Z,20.76
2024-02-05T10:31:51.826Z,20.69
2024-02-05T10:32:51.939Z,20.76
2024-02-05T10:33:52.157Z,20.64
2024-02-05T10:34:51.979Z,20.64
2024-02-05T10:35:52.034Z,20.01
2024-02-05T10:36:52.379Z,19.79
2024-02-05T10:37:52.065Z,19.63
2024-02-05T10:38:52.165Z,19.51
2024-02-05T10:39:52.110Z,19.43
2024-02-05T10:40:52.264Z,19.33
2024-02-05T10:41:52.248Z,18.89
2024-02-05T10:42:53.081Z,18.81
2024-02-05T10:43:52.685Z,19.01
2024-02-05T10:44:52.217Z,19.01
2024-02-05T10:45:52.343Z,19.06
2024-02-05T10:46:53.638Z,18.86
2024-02-05T10:47:52.418Z,18.79
2024-02-05T10:48:52.433Z,18.69
2024-02-05T10:49:52.584Z,18.75
2024-02-05T10:50:52.450Z,19.12
2024-02-05T10:51:52.416Z,20.05
2024-02-05T10:52:52.460Z,20.34
2024-02-05T10:53:52.387Z,20.06
2024-02-05T10:54:52.648Z,19.65
2024-02-05T10:55:53.303Z,19.46
2024-02-05T10:56:52.477Z,19.29
2024-02-05T10:57:52.581Z,19.04
2024-02-05T10:58:52.704Z,19.90
2024-02-05T10:59:52.661Z,20.21
2024-02-05T11:00:52.734Z,19.79
2024-02-05T11:01:56.094Z,19.46
2024-02-05T11:02:52.774Z,19.13
2024-02-05T11:03:52.769Z,18.71
2024-02-05T11:04:53.051Z,18.19
2024-02-05T11:05:52.761Z,18.15
2024-02-05T11:06:52.861Z,18.95
2024-02-05T11:07:52.788Z,19.58
2024-02-05T11:08:52.763Z,19.41
2024-02-05T11:09:52.649Z,19.41
2024-02-05T11:10:52.765Z,19.42
2024-02-05T11:11:52.591Z,19.74
2024-02-05T11:12:52.781Z,19.85
2024-02-05T11:13:52.574Z,19.84
2024-02-05T11:14:52.576Z,20.02
2024-02-05T11:15:52.786Z,20.42
2024-02-05T11:16:52.536Z,20.12
2024-02-05T11:17:52.612Z,19.55
2024-02-05T11:18:52.726Z,18.80
2024-02-05T11:19:52.672Z,17.99
2024-02-05T11:20:52.665Z,17.82
2024-02-05T11:21:56.291Z,17.97
2024-02-05T11:22:52.824Z,17.83
2024-02-05T11:23:52.487Z,17.52
2024-02-05T11:24:52.619Z,17.81
2024-02-05T11:25:52.509Z,17.87
2024-02-05T11:26:52.610Z,17.87
2024-02-05T11:27:52.583Z,17.79
2024-02-05T11:28:52.498Z,17.94
2024-02-05T11:29:53.115Z,17.91
2024-02-05T11:30:52.513Z,17.63
2024-02-05T11:31:52.544Z,17.30
2024-02-05T11:32:52.673Z,17.22
2024-02-05T11:33:52.619Z,17.08
2024-02-05T11:34:52.730Z,17.05
2024-02-05T11:35:53.891Z,16.79
2024-02-05T11:36:52.562Z,17.01
2024-02-05T11:37:52.581Z,17.40
2024-02-05T11:38:52.574Z,17.72
2024-02-05T11:39:55.476Z,18.09
2024-02-05T11:40:52.665Z,18.55
2024-02-05T11:41:52.511Z,18.27
2024-02-05T11:42:53.236Z,18.14
2024-02-05T11:43:52.469Z,17.79
2024-02-05T11:44:52.454Z,18.38
2024-02-05T11:45:52.511Z,18.58
2024-02-05T11:46:52.324Z,18.86
2024-02-05T11:47:52.416Z,19.43
2024-02-05T11:48:53.221Z,19.73
2024-02-05T11:49:52.517Z,19.58
2024-02-05T11:50:52.339Z,19.49
2024-02-05T11:51:52.373Z,19.82
2024-02-05T11:52:53.194Z,19.68
2024-02-05T11:53:52.331Z,20.01
2024-02-05T11:54:52.516Z,19.98
2024-02-05T11:55:52.299Z,19.51
2024-02-05T11:56:52.434Z,19.85
2024-02-05T11:57:52.378Z,20.05
2024-02-05T11:58:52.409Z,20.14
2024-02-05T11:59:52.372Z,20.05
2024-02-05T12:00:52.379Z,20.14
2024-02-05T12:01:52.418Z,20.18
2024-02-05T12:02:52.248Z,20.19
2024-02-05T12:03:53.296Z,19.83
2024-02-05T12:04:52.259Z,19.26
2024-02-05T12:05:52.252Z,19.18
2024-02-05T12:06:52.411Z,19.14
2024-02-05T12:07:53.216Z,19.27
2024-02-05T12:08:53.988Z,19.19
2024-02-05T12:09:53.237Z,19.24
2024-02-05T12:10:52.279Z,19.50
2024-02-05T12:11:52.220Z,19.44
2024-02-05T12:12:52.233Z,19.33
2024-02-05T12:13:52.388Z,19.52
2024-02-05T12:14:54.091Z,19.73
2024-02-05T12:15:54.770Z,19.69
2024-02-05T12:16:53.248Z,20.12
2024-02-05T12:17:52.608Z,20.01
2024-02-05T12:18:53.890Z,20.22
2024-02-05T12:19:52.633Z,20.11
2024-02-05T12:20:54.646Z,19.96
2024-02-05T12:21:52.855Z,19.90
2024-02-05T12:22:52.572Z,19.85
2024-02-05T12:23:52.668Z,19.50
2024-02-05T12:24:52.670Z,19.15
2024-02-05T12:25:52.695Z,19.27
2024-02-05T12:26:52.622Z,20.10
2024-02-05T12:27:52.633Z,20.91
2024-02-05T12:28:53.632Z,21.62
2024-02-05T12:29:52.570Z,21.40
2024-02-05T12:30:52.586Z,21.71
2024-02-05T12:31:52.538Z,21.35
2024-02-05T12:32:52.564Z,21.35
2024-02-05T12:33:53.407Z,21.46
2024-02-05T12:34:52.665Z,21.60
2024-02-05T12:35:52.509Z,21.69
2024-02-05T12:36:52.606Z,22.23
2024-02-05T12:37:52.638Z,23.61
2024-02-05T12:38:52.515Z,25.28
2024-02-05T12:39:52.810Z,26.32
2024-02-05T12:40:52.480Z,26.86
2024-02-05T12:41:52.695Z,27.05
2024-02-05T12:42:52.527Z,27.26
2024-02-05T12:43:52.488Z,28.11
2024-02-05T12:45:01.411Z,28.64
2024-02-05T12:45:53.488Z,28.97
2024-02-05T12:46:52.464Z,28.84
2024-02-05T12:47:52.520Z,28.80
2024-02-05T12:48:52.547Z,29.67
2024-02-05T12:49:52.573Z,30.69
2024-02-05T12:50:52.443Z,31.05
2024-02-05T12:51:52.435Z,31.32
2024-02-05T12:52:52.389Z,31.52
2024-02-05T12:53:52.487Z,31.68
2024-02-05T12:54:52.642Z,32.14
2024-02-05T12:55:52.406Z,32.62
2024-02-05T12:56:52.510Z,32.70
2024-02-05T12:57:52.478Z,32.82
2024-02-05T12:58:52.515Z,32.94
2024-02-05T12:59:52.340Z,32.76
2024-02-05T13:00:52.527Z,32.90
2024-02-05T13:01:54.215Z,33.22
2024-02-05T13:02:52.411Z,33.55
2024-02-05T13:03:52.413Z,32.95
2024-02-05T13:04:52.629Z,32.87
2024-02-05T13:05:52.665Z,33.16
2024-02-05T13:06:52.492Z,33.57
2024-02-05T13:07:52.360Z,33.86
2024-02-05T13:08:52.378Z,33.81
2024-02-05T13:09:52.335Z,33.97
2024-02-05T13:10:52.488Z,34.39
2024-02-05T13:11:52.328Z,34.38
2024-02-05T13:12:52.483Z,34.76
2024-02-05T13:13:52.281Z,35.19
2024-02-05T13:14:52.318Z,35.20
2024-02-05T13:15:52.262Z,35.24
2024-02-05T13:16:52.271Z,35.28
2024-02-05T13:17:52.323Z,35.55
2024-02-05T13:18:52.435Z,35.71
2024-02-05T13:19:52.362Z,35.79
2024-02-05T13:20:52.160Z,35.81
2024-02-05T13:21:52.261Z,36.07
2024-02-05T13:22:52.192Z,36.16
2024-02-05T13:23:52.277Z,36.50
2024-02-05T13:24:53.235Z,36.76
2024-02-05T13:25:52.284Z,36.87
2024-02-05T13:26:52.300Z,36.88
2024-02-05T13:27:52.280Z,37.37
2024-02-05T13:28:52.205Z,37.22
2024-02-05T13:29:52.219Z,37.56
2024-02-05T13:30:52.201Z,37.64
2024-02-05T13:31:52.128Z,37.32
2024-02-05T13:32:52.160Z,36.97
2024-02-05T13:33:52.333Z,36.79
2024-02-05T13:34:52.286Z,36.77
2024-02-05T13:35:52.081Z,36.76
2024-02-05T13:36:52.114Z,36.63
2024-02-05T13:37:52.156Z,36.59
2024-02-05T13:38:52.795Z,36.98
2024-02-05T13:39:52.168Z,36.64
2024-02-05T13:40:52.126Z,36.78
2024-02-05T13:41:52.115Z,37.22
2024-02-05T13:42:52.138Z,37.32
2024-02-05T13:43:52.193Z,36.87
2024-02-05T13:44:52.124Z,36.44
2024-02-05T13:45:52.209Z,37.07
2024-02-05T13:46:52.050Z,37.26
2024-02-05T13:47:52.127Z,37.48
2024-02-05T13:48:52.094Z,37.12
2024-02-05T13:55:23.048Z,38.45
2024-02-05T13:56:21.986Z,37.96
2024-02-05T13:57:22.406Z,37.81
2024-02-05T13:58:22.221Z,37.39
2024-02-05T13:59:23.873Z,37.38
2024-02-05T14:00:24.740Z,37.50
2024-02-05T14:01:21.992Z,37.47
2024-02-05T14:02:21.952Z,37.15
2024-02-05T14:03:22.754Z,37.33
2024-02-05T14:04:22.051Z,37.26
2024-02-05T14:05:22.145Z,37.14
2024-02-05T14:06:22.095Z,36.83
2024-02-05T14:07:22.179Z,37.02
2024-02-05T14:08:22.075Z,37.77
2024-02-05T14:09:21.919Z,38.00
2024-02-05T14:10:21.955Z,37.60
2024-02-05T14:11:22.075Z,36.51
2024-02-05T14:12:21.951Z,36.41
2024-02-05T14:13:21.933Z,36.38
2024-02-05T14:14:21.888Z,36.23
2024-02-05T14:15:21.826Z,36.23
2024-02-05T14:16:21.967Z,35.98
2024-02-05T14:17:21.847Z,36.00
2024-02-05T14:18:22.074Z,36.60
2024-02-05T14:19:22.334Z,36.22
2024-02-05T14:20:21.858Z,36.14
2024-02-05T14:21:21.855Z,36.27
2024-02-05T14:22:21.971Z,36.40
2024-02-05T14:23:23.866Z,36.07
2024-02-05T14:24:22.006Z,36.18
2024-02-05T14:25:21.880Z,36.26
2024-02-05T14:26:21.788Z,36.30
2024-02-05T14:27:21.846Z,35.94
2024-02-05T14:28:21.831Z,35.85
2024-02-05T14:29:22.119Z,35.90
2024-02-05T14:30:21.811Z,35.58
2024-02-05T14:31:22.022Z,35.53
2024-02-05T14:32:23.878Z,35.41
2024-02-05T14:33:22.203Z,35.46
2024-02-05T14:34:22.242Z,34.67
2024-02-05T14:35:22.193Z,34.67
2024-02-05T14:36:22.302Z,34.81
2024-02-05T14:37:22.131Z,34.88
2024-02-05T14:38:22.274Z,35.46
2024-02-05T14:39:22.373Z,35.95
2024-02-05T14:40:22.450Z,36.59
2024-02-05T14:41:22.226Z,36.08
2024-02-05T14:42:23.500Z,35.54
2024-02-05T14:43:22.307Z,35.43
2024-02-05T14:44:22.541Z,36.43
2024-02-05T14:45:22.453Z,36.55
2024-02-05T14:46:22.756Z,36.66
2024-02-05T14:47:22.507Z,36.48
2024-02-05T14:48:23.347Z,36.36
2024-02-05T14:49:23.064Z,36.40
2024-02-05T14:50:22.788Z,36.35
2024-02-05T14:51:22.662Z,36.38
2024-02-05T14:52:22.634Z,36.98
2024-02-05T14:53:23.891Z,37.07
2024-02-05T14:54:22.631Z,36.75
2024-02-05T14:55:22.789Z,36.31
2024-02-05T14:56:22.806Z,36.43
2024-02-05T14:57:22.797Z,36.49
2024-02-05T14:58:22.961Z,36.67
2024-02-05T14:59:22.981Z,36.49
2024-02-05T15:00:23.166Z,36.39
2024-02-05T15:01:23.064Z,36.86
2024-02-05T15:02:22.977Z,37.16
2024-02-05T15:03:23.144Z,37.12
2024-02-05T15:04:23.081Z,36.76
2024-02-05T15:05:23.226Z,37.03
2024-02-05T15:06:23.313Z,37.58
2024-02-05T15:07:23.148Z,38.21
2024-02-05T15:08:23.152Z,38.33
2024-02-05T15:09:23.200Z,38.50
2024-02-05T15:10:23.199Z,38.60
2024-02-05T15:11:23.184Z,38.72
2024-02-05T15:12:23.270Z,38.76
2024-02-05T15:13:23.324Z,38.69
2024-02-05T15:14:23.344Z,38.89
2024-02-05T15:15:23.406Z,38.76
2024-02-05T15:16:23.668Z,39.01
2024-02-05T15:17:23.512Z,38.65
2024-02-05T15:18:23.617Z,38.68
2024-02-05T15:19:23.676Z,38.74
2024-02-05T15:20:23.670Z,38.30
2024-02-05T15:21:23.663Z,38.58
2024-02-05T15:22:23.855Z,39.05
2024-02-05T15:23:23.618Z,39.69
2024-02-05T15:24:23.738Z,40.29
2024-02-05T15:25:23.812Z,40.52
2024-02-05T15:26:24.682Z,40.60
2024-02-05T15:27:23.870Z,40.00
2024-02-05T15:28:23.992Z,40.07
2024-02-05T15:29:23.846Z,39.97
2024-02-05T15:30:23.908Z,39.96
2024-02-05T15:31:24.078Z,40.23
2024-02-05T15:32:24.804Z,40.06
2024-02-05T15:33:24.765Z,40.44
2024-02-05T15:34:24.206Z,40.86
2024-02-05T15:35:24.289Z,41.29
2024-02-05T15:36:24.146Z,41.31
2024-02-05T15:37:24.386Z,40.15
2024-02-05T15:38:24.213Z,40.06
2024-02-05T15:39:24.224Z,39.64
2024-02-05T15:40:24.289Z,39.56
2024-02-05T15:41:24.392Z,39.68
2024-02-05T15:42:24.313Z,40.41
2024-02-05T15:43:25.467Z,40.51
2024-02-05T15:44:24.498Z,40.59
2024-02-05T15:45:24.577Z,41.14
2024-02-05T15:46:24.740Z,40.56
2024-02-05T15:47:24.801Z,39.95
2024-02-05T15:48:25.813Z,39.29
2024-02-05T15:49:24.865Z,39.54
2024-02-05T15:50:24.910Z,38.46
2024-02-05T15:51:24.990Z,39.10
2024-02-05T15:52:24.913Z,37.90
2024-02-05T15:53:24.875Z,38.10
2024-02-05T15:54:25.024Z,38.66
2024-02-05T15:55:26.315Z,39.06
2024-02-05T15:56:31.022Z,39.36
2024-02-05T15:57:26.047Z,39.38
2024-02-05T15:58:25.086Z,39.37
2024-02-05T15:59:25.045Z,39.05
2024-02-05T16:00:25.035Z,38.13
2024-02-05T16:01:27.705Z,37.94
2024-02-05T16:02:26.016Z,38.11
2024-02-05T16:03:24.953Z,37.87
2024-02-05T16:04:25.147Z,37.61
2024-02-05T16:05:25.018Z,37.83
2024-02-05T16:06:25.183Z,38.10
2024-02-05T16:07:26.544Z,37.77
2024-02-05T16:08:24.976Z,37.77
2024-02-05T16:09:24.947Z,37.56
2024-02-05T16:10:25.076Z,37.71
2024-02-05T16:11:24.908Z,37.96
2024-02-05T16:12:24.940Z,38.04
2024-02-05T16:13:26.986Z,38.23
2024-02-05T16:14:24.864Z,38.33
2024-02-05T16:15:24.845Z,38.57
2024-02-05T16:16:24.964Z,38.78
2024-02-05T16:17:24.872Z,38.83
2024-02-05T16:19:29.797Z,39.12
2024-02-05T16:20:28.091Z,39.04
2024-02-05T16:21:27.425Z,38.69
2024-02-05T16:22:27.556Z,38.81
2024-02-05T16:23:27.175Z,38.57
2024-02-05T16:24:27.359Z,38.57
2024-02-05T16:25:31.400Z,38.57
2024-02-05T16:26:27.176Z,38.46
2024-02-05T16:27:27.168Z,38.52
2024-02-05T16:28:27.200Z,38.60
2024-02-05T16:29:27.107Z,38.27
2024-02-05T16:30:27.296Z,38.24
2024-02-05T16:31:27.251Z,38.25
2024-02-05T16:32:27.310Z,38.34
2024-02-05T16:33:27.323Z,38.43
2024-02-05T16:34:27.490Z,38.65
2024-02-05T16:35:27.204Z,38.73
2024-02-05T16:36:27.148Z,38.78
2024-02-05T16:37:30.579Z,38.77
2024-02-05T16:38:27.081Z,38.76
2024-02-05T16:39:27.073Z,38.83
2024-02-05T16:40:27.205Z,38.91
2024-02-05T16:41:27.154Z,39.05
2024-02-05T16:42:27.084Z,38.98
2024-02-05T16:43:30.854Z,39.30
2024-02-05T16:44:27.096Z,38.86
2024-02-05T16:45:27.054Z,38.79
2024-02-05T16:46:27.162Z,38.89
2024-02-05T16:47:27.044Z,38.80
2024-02-05T16:48:27.243Z,38.00
2024-02-05T16:49:30.059Z,38.25
2024-02-05T16:50:27.062Z,38.54
2024-02-05T16:51:27.038Z,38.43
2024-02-05T16:52:27.107Z,38.66
2024-02-05T16:53:27.016Z,39.08
2024-02-05T16:54:27.080Z,39.14
2024-02-05T16:55:30.539Z,39.26
2024-02-05T16:56:26.982Z,39.36
2024-02-05T16:57:26.988Z,39.23
2024-02-05T16:58:27.069Z,39.25
2024-02-05T16:59:27.103Z,39.18
2024-02-05T17:00:26.966Z,39.09
2024-02-05T17:01:26.993Z,39.14
2024-02-05T17:02:26.924Z,39.44
2024-02-05T17:03:26.939Z,39.37
2024-02-05T17:04:26.997Z,39.07
2024-02-05T17:05:26.979Z,39.24
2024-02-05T17:06:27.061Z,38.79
2024-02-05T17:07:26.930Z,38.59
2024-02-05T17:08:26.928Z,38.79
2024-02-05T17:09:27.964Z,38.65
2024-02-05T17:10:27.070Z,38.72
2024-02-05T17:11:26.923Z,38.61
2024-02-05T17:12:29.648Z,38.41
2024-02-05T17:13:27.066Z,38.49
2024-02-05T17:14:26.915Z,38.77
2024-02-05T17:15:26.960Z,38.96
2024-02-05T17:16:27.060Z,38.81
2024-02-05T17:17:26.927Z,39.14
2024-02-05T17:18:27.085Z,38.92